createdAt,value
2022-12-31T00:00:50.689Z,100753.50
2022-12-31T00:04:03.487Z,100732.31
2022-12-31T00:07:06.099Z,100727.97
2022-12-31T00:10:09.710Z,100714.91
2022-12-31T00:13:13.396Z,100717.56
2022-12-31T00:16:19.785Z,100710.50
2022-12-31T00:19:22.416Z,100708.66
2022-12-31T00:22:25.399Z,100702.44
2022-12-31T00:25:27.978Z,100707.53
2022-12-31T00:28:30.881Z,100699.78
2022-12-31T00:31:35.929Z,100704.28
2022-12-31T00:34:38.949Z,100689.09
2022-12-31T00:37:41.599Z,100686.34
2022-12-31T00:40:44.646Z,100697.00
2022-12-31T00:43:47.841Z,100686.38
2022-12-31T00:46:51.257Z,100688.13
2022-12-31T00:49:53.886Z,100692.41
2022-12-31T00:52:57.307Z,100686.47
2022-12-31T00:56:08.962Z,100684.78
2022-12-31T00:59:12.055Z,100662.91
2022-12-31T01:02:14.875Z,100650.34
2022-12-31T01:05:18.010Z,100656.31
2022-12-31T01:08:20.610Z,100636.38
2022-12-31T01:11:24.676Z,100646.63
2022-12-31T01:14:27.371Z,100644.09
2022-12-31T01:17:31.247Z,100645.09
2022-12-31T01:20:39.111Z,100639.91
2022-12-31T01:23:42.716Z,100622.38
2022-12-31T01:26:45.905Z,100630.25
2022-12-31T01:29:49.292Z,100634.81
2022-12-31T01:32:51.860Z,100621.59
2022-12-31T01:35:54.659Z,100619.13
2022-12-31T01:38:59.573Z,100607.84
2022-12-31T01:42:02.624Z,100586.72
2022-12-31T01:45:11.267Z,100600.16
2022-12-31T01:48:17.403Z,100611.69
2022-12-31T01:51:20.888Z,100593.97
2022-12-31T01:54:25.650Z,100597.75
2022-12-31T01:57:28.368Z,100574.94
2022-12-31T02:00:32.575Z,100585.59
2022-12-31T02:03:35.652Z,100581.34
2022-12-31T02:06:52.576Z,100569.94
2022-12-31T02:09:55.316Z,100583.19
2022-12-31T02:12:58.800Z,100582.38
2022-12-31T02:16:08.512Z,100565.75
2022-12-31T02:19:36.149Z,100543.78
2022-12-31T02:22:44.583Z,100537.78
2022-12-31T02:25:50.656Z,100530.03
2022-12-31T02:29:17.635Z,100521.22
2022-12-31T02:32:36.208Z,100525.75
2022-12-31T02:35:58.804Z,100526.78
2022-12-31T02:39:04.239Z,100528.75
2022-12-31T02:42:07.285Z,100546.41
2022-12-31T02:45:13.647Z,100538.56
2022-12-31T02:48:46.077Z,100548.22
2022-12-31T02:52:04.037Z,100525.25
2022-12-31T02:55:41.730Z,100528.91
2022-12-31T02:59:27.464Z,100536.97
2022-12-31T03:02:31.653Z,100547.44
2022-12-31T03:05:39.857Z,100538.72
2022-12-31T03:09:01.767Z,100542.34
2022-12-31T03:12:25.175Z,100537.09
2022-12-31T03:15:30.594Z,100543.31
2022-12-31T03:18:52.081Z,100538.03
2022-12-31T03:22:13.287Z,100538.81
2022-12-31T03:25:38.272Z,100553.00
2022-12-31T03:28:43.580Z,100553.13
2022-12-31T03:31:46.683Z,100553.03
2022-12-31T03:34:50.052Z,100556.66
2022-12-31T03:37:53.352Z,100561.25
2022-12-31T03:40:56.211Z,100557.88
2022-12-31T03:43:59.128Z,100561.41
2022-12-31T03:47:01.733Z,100554.44
2022-12-31T03:50:05.720Z,100552.00
2022-12-31T03:53:08.419Z,100554.63
2022-12-31T03:56:11.552Z,100563.53
2022-12-31T03:59:14.218Z,100553.00
2022-12-31T04:02:18.543Z,100535.50
2022-12-31T04:05:23.324Z,100557.66
2022-12-31T04:08:26.299Z,100555.22
2022-12-31T04:11:28.865Z,100551.00
2022-12-31T04:14:31.818Z,100545.00
2022-12-31T04:17:34.431Z,100549.53
2022-12-31T04:20:38.532Z,100522.44
2022-12-31T04:23:40.943Z,100505.72
2022-12-31T04:26:44.531Z,100520.00
2022-12-31T04:29:47.107Z,100520.94
2022-12-31T04:32:50.209Z,100514.06
2022-12-31T04:35:52.713Z,100513.13
2022-12-31T04:38:56.784Z,100528.91
2022-12-31T04:41:59.403Z,100522.84
2022-12-31T04:45:02.814Z,100521.22
2022-12-31T04:48:05.771Z,100525.38
2022-12-31T04:51:09.243Z,100512.19
2022-12-31T04:54:11.825Z,100528.22
2022-12-31T04:57:14.945Z,100540.63
2022-12-31T05:00:17.659Z,100545.88
2022-12-31T05:03:21.456Z,100549.41
2022-12-31T05:06:24.362Z,100538.03
2022-12-31T05:09:28.615Z,100535.41
2022-12-31T05:12:31.330Z,100532.78
2022-12-31T05:15:34.686Z,100528.50
2022-12-31T05:18:37.641Z,100525.88
2022-12-31T05:21:40.599Z,100542.66
2022-12-31T05:24:43.217Z,100528.63
2022-12-31T05:27:46.215Z,100548.84
2022-12-31T05:30:51.129Z,100539.22
2022-12-31T05:33:54.573Z,100526.00
2022-12-31T05:36:57.173Z,100533.19
2022-12-31T05:40:00.417Z,100529.69
2022-12-31T05:43:02.890Z,100527.94
2022-12-31T05:46:05.902Z,100527.06
2022-12-31T05:49:08.555Z,100531.50
2022-12-31T05:52:11.581Z,100519.31
2022-12-31T05:55:14.248Z,100530.72
2022-12-31T05:58:18.176Z,100522.81
2022-12-31T06:01:20.839Z,100529.03
2022-12-31T06:04:23.992Z,100520.34
2022-12-31T06:07:26.685Z,100533.50
2022-12-31T06:10:29.723Z,100512.31
2022-12-31T06:13:32.173Z,100522.06
2022-12-31T06:16:35.107Z,100528.34
2022-12-31T06:19:37.671Z,100516.88
2022-12-31T06:22:40.636Z,100518.63
2022-12-31T06:25:43.499Z,100513.38
2022-12-31T06:28:46.391Z,100520.50
2022-12-31T06:31:48.952Z,100527.53
2022-12-31T06:34:52.238Z,100528.47
2022-12-31T06:37:54.886Z,100531.09
2022-12-31T06:40:57.850Z,100525.81
2022-12-31T06:44:00.480Z,100534.59
2022-12-31T06:47:03.456Z,100532.78
2022-12-31T06:50:07.340Z,100538.94
2022-12-31T06:53:10.655Z,100544.28
2022-12-31T06:56:27.857Z,100549.53
2022-12-31T06:59:34.650Z,100559.31
2022-12-31T07:02:58.207Z,100566.44
2022-12-31T07:06:44.346Z,100566.53
2022-12-31T07:09:58.032Z,100561.25
2022-12-31T07:13:12.168Z,100570.88
2022-12-31T07:16:39.553Z,100580.69
2022-12-31T07:20:12.250Z,100583.41
2022-12-31T07:23:15.283Z,100585.97
2022-12-31T07:26:49.930Z,100587.00
2022-12-31T07:30:30.847Z,100591.44
2022-12-31T07:33:54.507Z,100587.91
2022-12-31T07:37:20.742Z,100599.44
2022-12-31T07:40:45.026Z,100606.50
2022-12-31T07:44:06.571Z,100597.69
2022-12-31T07:47:26.836Z,100603.09
2022-12-31T07:50:29.935Z,100590.78
2022-12-31T07:53:33.074Z,100595.31
2022-12-31T07:56:35.913Z,100588.25
2022-12-31T07:59:54.341Z,100596.19
2022-12-31T08:03:11.342Z,100592.75
2022-12-31T08:06:53.096Z,100608.66
2022-12-31T08:10:15.658Z,100603.41
2022-12-31T08:13:20.969Z,100599.03
2022-12-31T08:16:23.859Z,100613.16
2022-12-31T08:19:32.099Z,100603.47
2022-12-31T08:22:43.369Z,100595.53
2022-12-31T08:26:12.448Z,100597.31
2022-12-31T08:29:26.441Z,100600.84
2022-12-31T08:32:34.532Z,100594.72
2022-12-31T08:36:02.753Z,100600.88
2022-12-31T08:39:38.267Z,100620.41
2022-12-31T08:43:04.923Z,100608.03
2022-12-31T08:46:16.022Z,100616.03
2022-12-31T08:49:18.867Z,100615.16
2022-12-31T08:52:26.357Z,100629.34
2022-12-31T08:55:29.184Z,100608.97
2022-12-31T08:58:50.548Z,100633.00
2022-12-31T09:02:08.539Z,100613.59
2022-12-31T09:05:54.438Z,100610.13
2022-12-31T09:09:24.605Z,100608.41
2022-12-31T09:13:00.219Z,100605.72
2022-12-31T09:16:17.468Z,100608.38
2022-12-31T09:19:20.333Z,100593.34
2022-12-31T09:22:23.333Z,100571.25
2022-12-31T09:25:27.131Z,100565.09
2022-12-31T09:28:52.760Z,100565.09
2022-12-31T09:31:58.420Z,100572.19
2022-12-31T09:35:40.413Z,100582.81
2022-12-31T09:39:15.039Z,100568.66
2022-12-31T09:42:35.799Z,100578.38
2022-12-31T09:46:12.433Z,100568.69
2022-12-31T09:49:33.547Z,100574.03
2022-12-31T09:53:12.774Z,100569.59
2022-12-31T09:56:27.593Z,100565.16
2022-12-31T09:59:34.883Z,100561.63
2022-12-31T10:03:02.239Z,100565.16
2022-12-31T10:06:23.894Z,100551.88
2022-12-31T10:09:41.984Z,100545.69
2022-12-31T10:13:13.986Z,100539.47
2022-12-31T10:16:25.729Z,100538.56
2022-12-31T10:19:50.387Z,100542.09
2022-12-31T10:23:15.479Z,100530.56
2022-12-31T10:26:29.416Z,100526.09
2022-12-31T10:29:34.912Z,100539.41
2022-12-31T10:32:46.037Z,100534.13
2022-12-31T10:35:58.416Z,100517.25
2022-12-31T10:39:08.951Z,100515.47
2022-12-31T10:42:26.326Z,100522.53
2022-12-31T10:46:07.895Z,100504.81
2022-12-31T10:49:21.586Z,100488.81
2022-12-31T10:52:43.617Z,100487.03
2022-12-31T10:56:34.981Z,100485.97
2022-12-31T10:59:43.765Z,100468.00
2022-12-31T11:03:22.154Z,100465.19
2022-12-31T11:06:59.539Z,100475.06
2022-12-31T11:10:31.753Z,100460.94
2022-12-31T11:13:46.103Z,100441.38
2022-12-31T11:17:04.044Z,100456.41
2022-12-31T11:20:44.220Z,100466.16
2022-12-31T11:24:10.581Z,100478.59
2022-12-31T11:27:37.072Z,100469.72
2022-12-31T11:31:11.782Z,100456.41
2022-12-31T11:34:37.892Z,100463.59
2022-12-31T11:37:43.169Z,100452.00
2022-12-31T11:41:26.465Z,100449.31
2022-12-31T11:44:47.024Z,100449.25
2022-12-31T11:48:32.241Z,100452.78
2022-12-31T11:52:02.949Z,100450.97
2022-12-31T11:55:16.922Z,100450.03
2022-12-31T11:58:28.843Z,100429.66
2022-12-31T12:02:03.663Z,100434.91
2022-12-31T12:05:10.992Z,100441.16
2022-12-31T12:08:15.161Z,100429.59
2022-12-31T12:11:27.986Z,100438.38
2022-12-31T12:14:35.702Z,100421.47
2022-12-31T12:17:39.685Z,100429.50
2022-12-31T12:20:44.886Z,100441.09
2022-12-31T12:24:16.991Z,100437.56
2022-12-31T12:27:22.426Z,100436.81
2022-12-31T12:30:28.416Z,100418.34
2022-12-31T12:33:42.709Z,100421.03
2022-12-31T12:36:48.488Z,100413.94
2022-12-31T12:40:09.774Z,100422.03
2022-12-31T12:43:23.601Z,100427.34
2022-12-31T12:46:43.551Z,100392.78
2022-12-31T12:49:50.164Z,100402.50
2022-12-31T12:53:14.735Z,100402.56
2022-12-31T12:56:25.010Z,100407.03
2022-12-31T12:59:37.069Z,100399.78
2022-12-31T13:02:54.887Z,100394.41
2022-12-31T13:06:09.736Z,100382.88
2022-12-31T13:09:12.205Z,100415.69
2022-12-31T13:12:17.440Z,100393.53
2022-12-31T13:15:30.040Z,100395.38
2022-12-31T13:18:43.846Z,100391.81
2022-12-31T13:22:05.365Z,100394.41
2022-12-31T13:25:23.478Z,100403.19
2022-12-31T13:28:26.863Z,100395.19
2022-12-31T13:31:34.373Z,100398.69
2022-12-31T13:34:42.591Z,100375.59
2022-12-31T13:37:45.832Z,100393.28
2022-12-31T13:40:57.774Z,100392.28
2022-12-31T13:44:34.832Z,100398.53
2022-12-31T13:48:01.995Z,100400.31
2022-12-31T13:51:18.644Z,100406.38
2022-12-31T13:54:51.944Z,100400.09
2022-12-31T13:58:17.318Z,100394.84
2022-12-31T14:01:38.383Z,100398.31
2022-12-31T14:04:47.925Z,100398.28
2022-12-31T14:07:59.491Z,100410.56
2022-12-31T14:11:28.024Z,100411.50
2022-12-31T14:14:47.015Z,100415.00
2022-12-31T14:18:05.228Z,100405.22
2022-12-31T14:21:22.299Z,100405.28
2022-12-31T14:24:37.396Z,100418.56
2022-12-31T14:27:42.650Z,100416.72
2022-12-31T14:30:46.638Z,100420.31
2022-12-31T14:34:09.147Z,100417.59
2022-12-31T14:37:16.777Z,100413.16
2022-12-31T14:40:37.408Z,100426.44
2022-12-31T14:43:49.231Z,100421.94
2022-12-31T14:46:57.764Z,100426.44
2022-12-31T14:50:05.620Z,100417.53
2022-12-31T14:53:16.109Z,100435.28
2022-12-31T14:56:41.276Z,100432.53
2022-12-31T14:59:58.358Z,100444.16
2022-12-31T15:03:07.545Z,100428.09
2022-12-31T15:06:36.307Z,100431.63
2022-12-31T15:10:15.503Z,100428.03
2022-12-31T15:13:21.539Z,100419.94
2022-12-31T15:16:52.385Z,100422.59
2022-12-31T15:20:32.749Z,100419.06
2022-12-31T15:23:38.107Z,100417.25
2022-12-31T15:26:48.838Z,100412.03
2022-12-31T15:29:51.946Z,100416.44
2022-12-31T15:32:55.926Z,100411.88
2022-12-31T15:36:18.308Z,100402.03
2022-12-31T15:39:43.566Z,100400.31
2022-12-31T15:42:55.662Z,100386.81
2022-12-31T15:45:58.349Z,100411.81
2022-12-31T15:49:15.301Z,100402.81
2022-12-31T15:52:27.408Z,100415.16
2022-12-31T15:55:38.835Z,100397.44
2022-12-31T15:58:41.849Z,100401.91
2022-12-31T16:01:46.391Z,100404.59
2022-12-31T16:04:49.669Z,100408.06
2022-12-31T16:07:57.509Z,100410.66
2022-12-31T16:11:04.862Z,100419.53
2022-12-31T16:14:07.927Z,100428.34
2022-12-31T16:17:28.543Z,100439.81
2022-12-31T16:20:33.512Z,100438.94
2022-12-31T16:23:40.489Z,100432.78
2022-12-31T16:26:50.886Z,100426.56
2022-12-31T16:30:07.489Z,100431.81
2022-12-31T16:33:15.017Z,100432.81
2022-12-31T16:36:21.541Z,100423.81
2022-12-31T16:39:26.508Z,100421.25
2022-12-31T16:42:29.634Z,100420.31
2022-12-31T16:45:35.347Z,100411.44
2022-12-31T16:48:38.741Z,100419.44
2022-12-31T16:51:42.452Z,100422.22
2022-12-31T16:54:49.161Z,100425.59
2022-12-31T16:57:56.033Z,100432.69
2022-12-31T17:01:12.406Z,100428.34
2022-12-31T17:04:20.174Z,100427.34
2022-12-31T17:07:33.696Z,100430.09
2022-12-31T17:10:37.027Z,100439.94
2022-12-31T17:13:39.701Z,100445.31
2022-12-31T17:17:04.464Z,100426.59
2022-12-31T17:20:11.751Z,100438.19
2022-12-31T17:23:23.496Z,100443.59
2022-12-31T17:26:31.289Z,100454.16
2022-12-31T17:29:34.827Z,100456.81
2022-12-31T17:32:38.010Z,100452.41
2022-12-31T17:35:42.624Z,100456.81
2022-12-31T17:38:45.241Z,100442.41
2022-12-31T17:41:50.507Z,100450.38
2022-12-31T17:44:57.224Z,100464.66
2022-12-31T17:48:00.107Z,100460.22
2022-12-31T17:51:02.863Z,100460.13
2022-12-31T17:54:16.687Z,100464.63
2022-12-31T17:57:27.150Z,100468.16
2022-12-31T18:00:30.279Z,100485.84
2022-12-31T18:03:32.967Z,100483.16
2022-12-31T18:06:36.328Z,100481.38
2022-12-31T18:09:38.985Z,100478.78
2022-12-31T18:12:43.699Z,100484.06
2022-12-31T18:15:47.057Z,100485.91
2022-12-31T18:18:49.958Z,100485.75
2022-12-31T18:21:52.411Z,100483.16
2022-12-31T18:24:55.461Z,100475.19
2022-12-31T18:27:58.166Z,100468.03
2022-12-31T18:31:01.567Z,100461.88
2022-12-31T18:34:04.121Z,100471.53
2022-12-31T18:37:17.921Z,100475.16
2022-12-31T18:40:24.057Z,100477.75
2022-12-31T18:43:26.927Z,100475.03
2022-12-31T18:46:29.460Z,100472.38
2022-12-31T18:49:32.524Z,100474.06
2022-12-31T18:52:35.142Z,100476.72
2022-12-31T18:55:46.127Z,100481.94
2022-12-31T18:58:49.420Z,100483.81
2022-12-31T19:01:52.603Z,100494.44
2022-12-31T19:04:55.084Z,100493.47
2022-12-31T19:07:58.491Z,100499.75
2022-12-31T19:11:01.746Z,100491.81
2022-12-31T19:14:12.198Z,100492.66
2022-12-31T19:17:14.909Z,100498.09
2022-12-31T19:20:17.972Z,100497.34
2022-12-31T19:23:21.817Z,100484.84
2022-12-31T19:26:24.933Z,100501.72
2022-12-31T19:29:28.655Z,100500.06
2022-12-31T19:32:31.501Z,100508.13
2022-12-31T19:35:34.161Z,100502.84
2022-12-31T19:38:37.534Z,100500.19
2022-12-31T19:41:42.572Z,100509.09
2022-12-31T19:44:45.658Z,100492.19
2022-12-31T19:47:48.989Z,100509.16
2022-12-31T19:50:54.019Z,100506.53
2022-12-31T19:53:56.565Z,100499.34
2022-12-31T19:56:59.743Z,100502.03
2022-12-31T20:00:02.186Z,100494.03
2022-12-31T20:03:15.677Z,100494.88
2022-12-31T20:06:19.488Z,100503.69
2022-12-31T20:09:22.267Z,100485.91
2022-12-31T20:12:24.859Z,100486.75
2022-12-31T20:15:27.846Z,100494.75
2022-12-31T20:18:30.484Z,100492.03
2022-12-31T20:21:33.349Z,100491.06
2022-12-31T20:24:35.916Z,100489.22
2022-12-31T20:27:38.983Z,100490.00
2022-12-31T20:30:41.639Z,100504.38
2022-12-31T20:33:45.176Z,100512.28
2022-12-31T20:36:47.668Z,100519.53
2022-12-31T20:39:50.680Z,100518.53
2022-12-31T20:42:53.490Z,100515.78
2022-12-31T20:45:56.327Z,100533.53
2022-12-31T20:49:00.492Z,100522.06
2022-12-31T20:52:05.705Z,100522.91
2022-12-31T20:55:10.066Z,100526.38
2022-12-31T20:58:13.043Z,100512.91
2022-12-31T21:01:16.732Z,100517.38
2022-12-31T21:04:20.130Z,100514.53
2022-12-31T21:07:22.850Z,100509.22
2022-12-31T21:10:25.711Z,100515.56
2022-12-31T21:13:28.457Z,100526.16
2022-12-31T21:16:32.136Z,100520.84
2022-12-31T21:19:34.703Z,100521.75
2022-12-31T21:22:38.138Z,100515.59
2022-12-31T21:25:41.913Z,100519.03
2022-12-31T21:28:45.163Z,100515.56
2022-12-31T21:31:47.611Z,100516.44
2022-12-31T21:35:14.549Z,100517.28
2022-12-31T21:38:13.310Z,100516.53
2022-12-31T21:41:35.265Z,100521.00
2022-12-31T21:44:38.071Z,100521.88
2022-12-31T21:47:59.506Z,100523.66
2022-12-31T21:51:09.523Z,100520.13
2022-12-31T21:54:32.498Z,100516.53
2022-12-31T21:57:52.188Z,100516.66
2022-12-31T22:01:17.566Z,100523.53
2022-12-31T22:04:59.896Z,100522.63
2022-12-31T22:07:43.249Z,100506.69
2022-12-31T22:10:52.134Z,100519.22
2022-12-31T22:13:56.357Z,100510.31
2022-12-31T22:16:59.016Z,100510.34
2022-12-31T22:20:26.513Z,100515.69
2022-12-31T22:23:24.493Z,100513.97
2022-12-31T22:26:29.369Z,100514.13
2022-12-31T22:29:31.801Z,100516.03
2022-12-31T22:32:34.879Z,100501.88
2022-12-31T22:35:37.504Z,100508.16
2022-12-31T22:38:40.750Z,100509.16
2022-12-31T22:41:43.688Z,100521.72
2022-12-31T22:44:46.625Z,100529.72
2022-12-31T22:47:49.220Z,100513.78
2022-12-31T22:50:58.956Z,100508.44
2022-12-31T22:54:01.430Z,100498.78
2022-12-31T22:57:04.899Z,100505.81
2022-12-31T23:00:12.744Z,100505.84
2022-12-31T23:03:15.744Z,100505.91
2022-12-31T23:06:18.889Z,100511.22
2022-12-31T23:09:40.741Z,100524.53
2022-12-31T23:12:43.454Z,100515.75
2022-12-31T23:16:04.910Z,100520.13
2022-12-31T23:19:28.163Z,100513.09
2022-12-31T23:22:49.562Z,100520.16
2022-12-31T23:25:52.952Z,100516.50
2022-12-31T23:28:55.698Z,100509.47
2022-12-31T23:31:58.295Z,100516.41
2022-12-31T23:35:06.086Z,100528.94
2022-12-31T23:38:12.825Z,100534.22
2022-12-31T23:41:19.193Z,100524.41
2022-12-31T23:44:21.840Z,100505.59
2022-12-31T23:47:24.959Z,100496.66
2022-12-31T23:50:27.708Z,100496.72
2022-12-31T23:53:30.487Z,100519.81
2022-12-31T23:56:33.169Z,100496.59
2022-12-31T23:59:36.029Z,100530.22
